TimeEDT,TemperatureF,Dew PointF,Humidity,Sea Level PressureIn,VisibilityMPH,Wind Direction,Wind SpeedMPH,Gust SpeedMPH,PrecipitationIn,Events,Conditions,WindDirDegrees,DateUTC
12:53 AM,37.9,32.0,79,29.99,10.0,NE,4.6,-,N/A,,Clear,50,2014-04-07 04:53:00
1:53 AM,37.0,33.1,86,29.99,10.0,East,3.5,-,N/A,,Clear,80,2014-04-07 05:53:00
2:53 AM,37.0,33.1,86,29.96,10.0,ENE,4.6,-,N/A,,Clear,60,2014-04-07 06:53:00
3:53 AM,37.0,34.0,89,29.94,10.0,NNE,4.6,-,N/A,,Clear,30,2014-04-07 07:53:00
4:53 AM,37.0,30.9,79,29.91,10.0,ENE,4.6,-,N/A,,Clear,60,2014-04-07 08:53:00
5:53 AM,37.0,32.0,82,29.89,10.0,Calm,Calm,-,N/A,,Clear,0,2014-04-07 09:53:00
6:53 AM,39.0,30.0,70,29.88,10.0,Calm,Calm,-,N/A,,Clear,0,2014-04-07 10:53:00
7:53 AM,37.9,32.0,79,29.87,10.0,Calm,Calm,-,N/A,,Clear,0,2014-04-07 11:53:00
8:53 AM,39.0,33.1,79,29.86,10.0,Calm,Calm,-,N/A,,Overcast,0,2014-04-07 12:53:00
9:53 AM,50.0,30.0,46,29.81,10.0,SSE,6.9,-,N/A,,Mostly Cloudy,150,2014-04-07 13:53:00
10:53 AM,51.1,30.9,46,29.82,10.0,SE,6.9,-,N/A,,Overcast,130,2014-04-07 14:53:00
11:53 AM,42.1,36.0,79,29.78,10.0,NE,6.9,-,N/A,,Overcast,50,2014-04-07 15:53:00
12:53 PM,44.1,36.0,73,29.75,10.0,NNE,4.6,-,N/A,,Overcast,30,2014-04-07 16:53:00
1:53 PM,44.1,37.0,76,29.70,10.0,NNE,6.9,-,N/A,,Overcast,30,2014-04-07 17:53:00
2:53 PM,52.0,39.0,61,29.66,10.0,East,9.2,-,N/A,,Overcast,100,2014-04-07 18:53:00
4:53 PM,48.9,44.1,83,29.56,10.0,ESE,15.0,20.7,N/A,Rain,Rain,120,2014-04-07 20:53:00
5:04 PM,48.2,44.6,87,29.55,8.0,SE,9.2,18.4,0.02,Rain,Rain,130,2014-04-07 21:04:00
5:53 PM,46.9,44.1,90,29.52,8.0,ENE,5.8,-,0.14,Rain,Heavy Rain,60,2014-04-07 21:53:00
6:01 PM,46.4,44.6,93,29.52,9.0,NNE,5.8,-,0.00,Rain,Rain,30,2014-04-07 22:01:00
6:33 PM,46.4,44.6,93,29.48,10.0,East,6.9,-,N/A,Rain,Light Rain,80,2014-04-07 22:33:00
6:46 PM,46.4,44.6,93,29.50,9.0,Variable,5.8,-,N/A,Rain,Light Rain,0,2014-04-07 22:46:00
6:53 PM,46.0,44.1,93,29.49,5.0,ENE,6.9,-,N/A,Rain,Heavy Rain,60,2014-04-07 22:53:00
7:35 PM,41.0,39.2,93,29.46,5.0,NNE,10.4,-,0.10,Rain,Rain,20,2014-04-07 23:35:00
7:49 PM,39.2,39.2,100,29.45,2.5,ENE,11.5,-,0.13,Rain,Heavy Rain,60,2014-04-07 23:49:00
7:53 PM,41.0,39.9,96,29.45,1.8,NE,13.8,-,0.14,Rain,Heavy Rain,50,2014-04-07 23:53:00
7:58 PM,41.0,39.2,93,29.44,2.0,NNE,10.4,-,0.02,Rain,Heavy Rain,30,2014-04-07 23:58:00
8:02 PM,41.0,39.2,93,29.43,3.0,NNE,11.5,-,0.03,Rain,Heavy Rain,30,2014-04-08 00:02:00
8:09 PM,39.2,39.2,100,29.44,1.8,NNE,10.4,-,0.04,Rain,Rain,20,2014-04-08 00:09:00
8:20 PM,39.2,39.2,100,29.43,2.5,NE,11.5,-,0.04,Rain,Rain,40,2014-04-08 00:20:00
8:27 PM,39.2,39.2,100,29.44,3.0,NE,9.2,-,0.04,Rain,Rain,50,2014-04-08 00:27:00
8:53 PM,39.0,37.9,96,29.44,5.0,NE,11.5,-,0.05,Rain,Light Rain,40,2014-04-08 00:53:00
9:09 PM,39.2,37.4,93,29.42,2.0,NE,15.0,-,0.01,Rain,Rain,40,2014-04-08 01:09:00
9:20 PM,37.4,37.4,100,29.41,4.0,NE,12.7,-,0.02,Rain,Rain,40,2014-04-08 01:20:00
9:53 PM,37.9,37.0,97,29.41,10.0,NE,16.1,21.9,0.03,Rain,Rain,40,2014-04-08 01:53:00
10:53 PM,37.0,37.0,100,29.42,8.0,NE,15.0,23.0,N/A,Rain,Rain,40,2014-04-08 02:53:00
11:53 PM,37.0,37.0,100,29.35,9.0,NE,16.1,-,0.11,Rain,Rain,40,2014-04-08 03:53:00